Time;durP1;ratioP1;P1;durP2;ratioP2;P2;SDS_P1;SDS_P2;PMS_P1;PMS_P2;Temp;Humidity;BMP_temperature;BMP_pressure;BME280_temperature;BME280_humidity;BME280_pressure;Samples;Min_cycle;Max_cycle;Signal;HPM_P1;HPM_P2
2022/06/03 00:02:21;;;;;;;10.90;3.97;;;22.10;99.90;;;;;;5048714;28;20052;-70
2022/06/03 00:05:48;;;;;;;11.70;4.28;;;22.00;99.90;;;;;;5049827;28;20056;-71
2022/06/03 00:09:31;;;;;;;13.38;4.00;;;22.10;99.90;;;;;;5029880;28;20511;-71
2022/06/03 00:12:49;;;;;;;14.43;4.88;;;22.10;99.90;;;;;;5050685;28;20044;-71
2022/06/03 00:16:37;;;;;;;9.65;4.25;;;22.20;99.90;;;;;;5052062;28;20423;-71
2022/06/03 00:20:06;;;;;;;13.27;3.97;;;22.20;99.90;;;;;;5052626;28;20522;-71
2022/06/03 00:23:48;;;;;;;7.55;3.67;;;22.20;99.90;;;;;;5053265;28;20052;-71
2022/06/03 00:27:27;;;;;;;8.40;4.25;;;22.10;99.90;;;;;;5053207;28;20048;-71
2022/06/03 00:30:52;;;;;;;7.88;3.90;;;22.00;99.90;;;;;;5052739;28;20044;-71
2022/06/03 00:34:09;;;;;;;6.30;3.58;;;21.90;99.90;;;;;;5052583;28;20044;-71
2022/06/03 00:37:40;;;;;;;8.82;3.63;;;21.90;99.90;;;;;;5052567;28;20032;-71
2022/06/03 00:40:53;;;;;;;11.70;5.90;;;21.70;99.90;;;;;;5053436;28;20380;-70
2022/06/03 00:44:30;;;;;;;11.93;6.00;;;21.50;99.90;;;;;;5052453;28;20044;-71
2022/06/03 00:48:09;;;;;;;13.43;7.82;;;21.40;99.90;;;;;;5034879;28;20427;-71
2022/06/03 00:51:34;;;;;;;12.07;6.13;;;21.00;99.90;;;;;;5038295;28;20044;-71
2022/06/03 00:55:15;;;;;;;13.43;6.72;;;20.80;99.90;;;;;;5052659;28;20044;-70
2022/06/03 00:58:43;;;;;;;16.92;6.68;;;20.70;99.90;;;;;;5053383;28;20617;-70
2022/06/03 01:02:13;;;;;;;12.60;5.93;;;20.70;99.90;;;;;;5047161;28;20044;-70
2022/06/03 01:05:32;;;;;;;11.85;5.57;;;20.70;99.90;;;;;;5052119;28;20048;-70
2022/06/03 01:09:01;;;;;;;11.38;5.50;;;20.70;99.90;;;;;;5051852;28;20040;-70
2022/06/03 01:12:09;;;;;;;12.50;5.95;;;20.70;99.90;;;;;;5052177;28;20056;-70
2022/06/03 01:15:28;;;;;;;14.05;5.95;;;20.70;99.90;;;;;;5050687;28;20491;-70
2022/06/03 01:18:52;;;;;;;12.40;5.50;;;20.80;99.90;;;;;;5051797;28;20036;-70
2022/06/03 01:22:18;;;;;;;13.07;5.60;;;20.80;99.90;;;;;;5051524;28;20048;-71
2022/06/03 01:25:34;;;;;;;10.48;5.28;;;20.80;99.90;;;;;;5052074;28;20056;-70
2022/06/03 01:29:15;;;;;;;11.95;5.38;;;20.80;99.90;;;;;;5051658;28;20047;-70
2022/06/03 01:32:38;;;;;;;10.18;5.40;;;20.70;99.90;;;;;;5051244;28;20048;-70
2022/06/03 01:36:00;;;;;;;13.35;5.65;;;20.50;99.90;;;;;;5051285;28;20055;-70
2022/06/03 01:39:16;;;;;;;13.05;5.47;;;20.40;99.90;;;;;;5052145;28;20048;-70
2022/06/03 01:42:50;;;;;;;16.80;5.72;;;20.40;99.90;;;;;;5051865;28;20044;-70
2022/06/03 01:46:29;;;;;;;12.52;5.43;;;20.40;99.90;;;;;;5044798;28;20506;-71
2022/06/03 01:49:39;;;;;;;17.60;5.60;;;20.40;99.90;;;;;;5050833;28;20699;-70
2022/06/03 01:52:52;;;;;;;13.23;4.80;;;20.40;99.90;;;;;;5051249;28;20052;-70
2022/06/03 01:56:07;;;;;;;10.02;5.40;;;20.50;99.90;;;;;;5051466;28;20400;-71
2022/06/03 01:59:26;;;;;;;8.57;5.13;;;20.50;99.90;;;;;;5051027;28;20404;-70
2022/06/03 02:02:58;;;;;;;13.77;4.90;;;20.70;99.90;;;;;;5050333;28;20399;-71
2022/06/03 02:06:11;;;;;;;10.93;4.35;;;20.70;99.90;;;;;;5051422;28;20052;-70
2022/06/03 02:09:34;;;;;;;11.52;4.70;;;20.60;99.90;;;;;;5031646;28;20522;-70
2022/06/03 02:13:02;;;;;;;14.07;5.05;;;20.60;99.90;;;;;;5047968;28;20072;-70
2022/06/03 02:16:29;;;;;;;8.23;4.35;;;20.50;99.90;;;;;;5049717;28;20044;-70
2022/06/03 02:19:41;;;;;;;11.07;4.10;;;20.50;99.90;;;;;;5050485;28;20454;-71
2022/06/03 02:22:52;;;;;;;9.25;4.38;;;20.40;99.90;;;;;;5030901;28;20388;-71
2022/06/03 02:26:05;;;;;;;6.90;3.95;;;20.40;99.90;;;;;;5041577;28;20056;-70
2022/06/03 02:32:59;;;;;;;11.73;4.85;;;20.40;99.90;;;;;;5050801;28;20043;-70
2022/06/03 02:36:21;;;;;;;9.48;4.20;;;20.30;99.90;;;;;;5029840;28;20045;-70
2022/06/03 02:39:47;;;;;;;;;;;20.30;99.90;;;;;;5047783;28;20044;-70
2022/06/03 02:43:09;;;;;;;11.10;4.30;;;20.20;99.90;;;;;;5050273;28;19909;-70
2022/06/03 02:46:38;;;;;;;11.00;3.40;;;20.20;99.90;;;;;;5050575;28;20238;-71
2022/06/03 02:50:04;;;;;;;11.73;4.13;;;20.20;99.90;;;;;;5030601;28;20056;-71
2022/06/03 02:53:43;;;;;;;11.60;5.07;;;20.30;99.90;;;;;;5048688;28;20510;-71
2022/06/03 02:57:25;;;;;;;11.80;3.80;;;20.30;99.90;;;;;;5050161;28;20056;-71
2022/06/03 03:00:42;;;;;;;13.57;3.85;;;20.20;99.90;;;;;;5049722;28;20518;-71
2022/06/03 03:03:56;;;;;;;8.38;3.53;;;20.00;99.90;;;;;;5050706;28;20040;-71
2022/06/03 03:07:28;;;;;;;7.88;3.40;;;20.00;99.90;;;;;;5047339;28;20598;-70
2022/06/03 03:10:54;;;;;;;8.30;3.75;;;20.00;99.90;;;;;;5049747;28;20384;-70
2022/06/03 03:14:36;;;;;;;7.05;4.55;;;20.00;99.90;;;;;;5049671;28;20048;-70
2022/06/03 03:18:02;;;;;;;9.25;4.28;;;19.90;99.90;;;;;;5050112;28;20664;-71
2022/06/03 03:21:21;;;;;;;10.52;3.97;;;19.90;99.90;;;;;;5030657;28;20041;-70
2022/06/03 03:24:50;;;;;;;9.13;4.00;;;20.00;99.90;;;;;;5047681;28;20044;-70
2022/06/03 03:28:21;;;;;;;10.75;4.03;;;19.90;99.90;;;;;;5049757;28;20044;-70
2022/06/03 03:31:47;;;;;;;12.23;3.80;;;19.90;99.90;;;;;;5049836;28;20522;-70
2022/06/03 03:35:26;;;;;;;10.18;3.55;;;19.90;99.90;;;;;;5030071;28;20060;-70
2022/06/03 03:38:48;;;;;;;10.00;4.28;;;20.00;99.90;;;;;;5048054;28;20500;-71
2022/06/03 03:42:16;;;;;;;9.30;4.03;;;20.00;99.90;;;;;;5049323;28;20044;-70
2022/06/03 03:45:26;;;;;;;7.15;3.60;;;20.10;99.90;;;;;;5049013;28;20052;-71
2022/06/03 03:49:00;;;;;;;7.15;3.75;;;20.10;99.90;;;;;;5053844;28;20048;-70
2022/06/03 03:52:12;;;;;;;8.70;4.05;;;20.20;99.90;;;;;;5052501;28;20044;-70
2022/06/03 03:56:01;;;;;;;6.85;3.92;;;20.20;99.90;;;;;;5051578;28;20052;-70
2022/06/03 04:00:02;;;;;;;8.07;4.03;;;20.20;99.90;;;;;;5053231;28;20444;-70
2022/06/03 04:03:27;;;;;;;8.57;3.55;;;20.20;99.90;;;;;;5053233;28;20052;-70
2022/06/03 04:06:45;;;;;;;9.10;3.65;;;20.20;99.90;;;;;;5053077;28;20546;-71
2022/06/03 04:09:53;;;;;;;6.47;3.60;;;20.20;99.90;;;;;;5051557;28;20048;-71
2022/06/03 04:13:19;;;;;;;8.23;4.00;;;20.30;99.90;;;;;;5050681;28;20044;-71
2022/06/03 04:16:41;;;;;;;9.82;4.07;;;20.40;99.90;;;;;;5052425;28;20501;-71
2022/06/03 04:20:00;;;;;;;10.20;4.22;;;20.60;99.90;;;;;;5052891;28;20051;-71
2022/06/03 04:23:35;;;;;;;10.68;4.50;;;20.60;99.90;;;;;;5049661;28;20059;-71
2022/06/03 04:27:23;;;;;;;7.68;3.95;;;20.30;99.90;;;;;;5051984;28;20044;-71
2022/06/03 04:30:45;;;;;;;11.40;5.68;;;20.80;99.90;;;;;;5052041;28;20060;-71
2022/06/03 04:34:11;;;;;;;12.80;7.10;;;21.20;99.90;;;;;;5052795;28;20387;-71
2022/06/03 04:37:44;;;;;;;12.98;6.07;;;21.10;99.90;;;;;;5032507;28;20407;-71
2022/06/03 04:41:25;;;;;;;17.58;6.90;;;21.20;99.90;;;;;;5052075;28;20044;-71
2022/06/03 04:44:32;;;;;;;13.73;6.33;;;21.10;99.90;;;;;;5052050;28;20052;-71
2022/06/03 04:47:48;;;;;;;14.75;6.13;;;21.30;99.90;;;;;;5052039;28;20495;-70
2022/06/03 04:51:29;;;;;;;14.68;6.22;;;21.30;99.90;;;;;;5033584;28;20045;-70
2022/06/03 04:54:52;;;;;;;12.95;4.55;;;21.50;99.90;;;;;;5050315;28;20044;-70
2022/06/03 04:58:41;;;;;;;13.48;4.78;;;21.90;99.90;;;;;;5050971;28;20071;-70
2022/06/03 05:02:19;;;;;;;18.80;5.40;;;22.50;99.90;;;;;;5051386;28;20067;-70
2022/06/03 05:05:49;;;;;;;7.38;3.95;;;23.30;99.90;;;;;;5051600;28;20036;-70
2022/06/03 05:09:14;;;;;;;7.80;4.28;;;24.80;99.90;;;;;;5052645;28;20522;-71
2022/06/03 05:12:33;;;;;;;11.23;4.10;;;25.80;99.90;;;;;;5052162;28;20052;-71
2022/06/03 05:15:52;;;;;;;7.95;3.65;;;27.00;99.90;;;;;;5050882;28;20043;-71
2022/06/03 05:18:56;;;;;;;6.97;3.25;;;28.50;99.90;;;;;;5051315;28;20044;-72
2022/06/03 05:22:10;;;;;;;7.03;3.80;;;29.20;99.60;;;;;;5052062;28;20036;-72
2022/06/03 05:25:38;;;;;;;8.25;3.92;;;28.30;99.90;;;;;;5050950;28;20442;-72
2022/06/03 05:29:08;;;;;;;11.43;4.70;;;26.50;99.90;;;;;;5051089;28;20048;-71
2022/06/03 05:32:30;;;;;;;10.50;4.85;;;25.10;99.90;;;;;;5051162;28;20052;-71
2022/06/03 05:35:55;;;;;;;10.20;4.70;;;25.20;99.90;;;;;;5051329;28;20055;-71
2022/06/03 05:39:17;;;;;;;10.00;4.07;;;25.90;99.90;;;;;;5051184;28;20498;-71
2022/06/03 05:42:52;;;;;;;9.55;4.32;;;26.50;99.90;;;;;;5050583;28;20333;-71
2022/06/03 05:46:07;;;;;;;10.35;4.53;;;26.40;99.90;;;;;;5050843;28;20072;-71
2022/06/03 05:49:42;;;;;;;10.45;4.03;;;26.40;99.90;;;;;;5032131;28;20806;-71
2022/06/03 05:52:47;;;;;;;12.48;4.25;;;26.30;99.90;;;;;;5048686;28;20051;-71
2022/06/03 05:56:32;;;;;;;8.95;4.15;;;26.50;99.90;;;;;;5050668;28;20064;-71
2022/06/03 06:00:05;;;;;;;15.38;4.93;;;26.20;99.90;;;;;;5049804;28;20043;-72
2022/06/03 06:03:30;;;;;;;14.35;4.53;;;25.50;99.90;;;;;;5049330;28;20056;-71
2022/06/03 06:06:53;;;;;;;10.50;4.22;;;25.60;99.90;;;;;;5049984;28;20044;-71
2022/06/03 06:10:19;;;;;;;10.52;4.95;;;25.30;99.90;;;;;;5048933;28;20055;-70
2022/06/03 06:14:01;;;;;;;13.32;4.30;;;25.10;99.90;;;;;;5048027;28;20503;-71
2022/06/03 06:17:30;;;;;;;10.88;4.78;;;24.80;99.90;;;;;;5047010;28;20052;-70
2022/06/03 06:21:04;;;;;;;8.93;4.57;;;24.90;99.90;;;;;;5049342;28;20048;-71
2022/06/03 06:24:14;;;;;;;8.38;4.65;;;24.60;99.90;;;;;;5049625;28;20045;-70
2022/06/03 06:27:28;;;;;;;12.20;4.18;;;24.20;99.90;;;;;;5049887;28;20052;-71
2022/06/03 06:30:52;;;;;;;13.43;4.95;;;24.40;99.90;;;;;;5050713;28;20039;-70
2022/06/03 06:34:14;;;;;;;7.93;3.40;;;24.40;99.90;;;;;;5051521;28;20044;-71
2022/06/03 06:37:36;;;;;;;8.70;3.80;;;24.30;99.90;;;;;;5050451;28;20506;-71
2022/06/03 06:40:55;;;;;;;13.35;4.30;;;24.60;99.90;;;;;;5049391;28;20036;-72
2022/06/03 06:44:24;;;;;;;8.55;4.03;;;24.60;99.90;;;;;;5036873;28;20040;-71
2022/06/03 06:47:41;;;;;;;9.18;4.32;;;25.10;99.90;;;;;;5040836;28;20056;-72
2022/06/03 06:51:01;;;;;;;10.52;3.70;;;25.60;99.90;;;;;;5049884;28;20052;-71
2022/06/03 06:54:25;;;;;;;7.00;3.30;;;26.40;99.90;;;;;;5049626;28;20043;-71
2022/06/03 06:57:41;;;;;;;10.43;3.58;;;27.20;99.90;;;;;;5049606;28;20282;-71
2022/06/03 07:00:49;;;;;;;16.55;3.67;;;28.00;99.90;;;;;;5030154;28;20064;-72
2022/06/03 07:04:11;;;;;;;7.10;3.30;;;28.80;99.30;;;;;;5047568;28;20040;-71
2022/06/03 07:07:23;;;;;;;5.57;2.85;;;29.40;97.30;;;;;;5048652;28;20507;-71
2022/06/03 07:10:33;;;;;;;5.30;3.05;;;29.90;95.70;;;;;;5050772;28;20039;-71
2022/06/03 07:13:51;;;;;;;9.10;3.10;;;30.60;95.60;;;;;;5050215;28;20495;-71
2022/06/03 07:20:46;;;;;;;8.57;3.17;;;30.30;95.60;;;;;;5051169;28;20052;-70
2022/06/03 07:23:55;;;;;;;7.93;3.20;;;31.20;95.80;;;;;;5054018;28;20052;-72
2022/06/03 07:27:07;;;;;;;7.10;2.95;;;31.00;94.10;;;;;;5054697;28;20053;-72
2022/06/03 07:30:33;;;;;;;5.07;3.03;;;29.80;95.90;;;;;;5055119;28;20048;-71
2022/06/03 07:33:54;;;;;;;14.77;3.97;;;31.60;94.90;;;;;;5056372;28;20044;-72
2022/06/03 07:37:06;;;;;;;9.70;3.35;;;30.40;96.10;;;;;;5047640;28;20048;-70
2022/06/03 07:40:18;;;;;;;7.88;3.22;;;30.40;95.80;;;;;;5053115;28;20044;-71
2022/06/03 07:43:28;;;;;;;9.23;3.60;;;30.40;97.10;;;;;;5055713;28;20056;-71
2022/06/03 07:46:54;;;;;;;10.52;4.43;;;31.20;95.50;;;;;;5055211;28;20056;-70
2022/06/03 07:50:02;;;;;;;11.18;3.35;;;29.10;97.30;;;;;;5044519;28;20032;-71
2022/06/03 07:53:32;;;;;;;9.70;3.33;;;29.50;97.70;;;;;;5056118;28;20052;-72
2022/06/03 07:56:37;;;;;;;27.25;4.80;;;30.50;96.90;;;;;;5055286;28;20130;-72
2022/06/03 07:59:41;;;;;;;7.03;3.03;;;30.90;95.80;;;;;;5056400;28;20056;-72
2022/06/03 08:02:45;;;;;;;10.00;3.00;;;31.50;95.60;;;;;;5056064;28;20392;-72
2022/06/03 08:06:00;;;;;;;7.13;2.90;;;32.10;95.20;;;;;;5055029;28;20096;-72
2022/06/03 08:12:38;;;;;;;25.10;4.35;;;32.50;93.80;;;;;;5051411;28;20498;-72
2022/06/03 08:16:02;;;;;;;8.63;2.92;;;31.70;95.00;;;;;;5054091;28;20043;-71
2022/06/03 08:19:18;;;;;;;7.78;2.47;;;32.30;93.90;;;;;;5044348;28;20396;-72
2022/06/03 08:22:24;;;;;;;9.10;3.03;;;32.70;93.70;;;;;;5056176;28;20043;-72
2022/06/03 08:25:35;;;;;;;8.98;2.72;;;34.60;92.50;;;;;;5055814;28;20399;-72
2022/06/03 08:28:43;;;;;;;11.88;2.67;;;35.90;91.30;;;;;;5050318;28;20040;-72
2022/06/03 08:31:48;;;;;;;7.82;2.47;;;37.30;90.40;;;;;;5055116;28;20058;-71
2022/06/03 08:34:54;;;;;;;5.93;2.70;;;38.20;87.30;;;;;;5032959;28;20056;-71
2022/06/03 08:38:04;;;;;;;6.22;2.50;;;38.00;86.80;;;;;;5051591;28;20052;-72
2022/06/03 08:41:29;;;;;;;5.07;2.42;;;38.90;85.90;;;;;;5051902;28;20043;-72
2022/06/03 08:44:54;;;;;;;10.73;2.70;;;40.30;82.60;;;;;;5052263;28;20056;-72
2022/06/03 08:48:04;;;;;;;10.88;2.50;;;41.00;80.60;;;;;;5051659;28;20044;-72
2022/06/03 08:51:17;;;;;;;5.57;2.20;;;42.20;79.00;;;;;;5052081;28;20475;-72
2022/06/03 08:54:35;;;;;;;7.45;2.53;;;42.90;76.90;;;;;;5052692;28;20068;-72
2022/06/03 08:57:44;;;;;;;10.45;2.97;;;43.20;76.00;;;;;;5047185;28;20048;-71
2022/06/03 09:01:10;;;;;;;8.50;2.85;;;43.60;73.90;;;;;;5050151;28;20044;-71
2022/06/03 09:04:48;;;;;;;3.00;1.90;;;44.00;73.50;;;;;;5045566;28;20044;-73
2022/06/03 09:08:09;;;;;;;4.03;2.00;;;44.90;70.60;;;;;;5050127;28;20052;-72
2022/06/03 09:12:04;;;;;;;10.25;2.85;;;42.80;69.30;;;;;;5053602;28;20052;-73
2022/06/03 09:15:18;;;;;;;6.22;1.95;;;42.20;71.20;;;;;;5032685;28;20400;-72
2022/06/03 09:18:31;;;;;;;34.22;4.28;;;41.00;72.60;;;;;;5049041;28;20197;-71
2022/06/03 09:21:41;;;;;;;41.05;6.68;;;37.20;75.30;;;;;;5051246;28;20048;-72
2022/06/03 09:24:45;;;;;;;15.02;2.88;;;36.10;77.80;;;;;;5052005;28;20056;-73
2022/06/03 09:27:51;;;;;;;10.95;2.88;;;35.80;78.70;;;;;;5051010;28;20052;-72
2022/06/03 09:30:58;;;;;;;6.07;2.38;;;35.80;78.60;;;;;;5050525;28;20063;-72
2022/06/03 09:34:03;;;;;;;7.80;2.45;;;35.80;78.00;;;;;;5051376;28;20416;-72
2022/06/03 09:37:14;;;;;;;10.65;2.63;;;34.70;80.90;;;;;;5050605;28;20048;-72
2022/06/03 09:40:20;;;;;;;;;;;35.90;82.20;;;;;;5050815;28;20383;-72
2022/06/03 09:43:27;;;;;;;8.23;2.80;;;35.60;80.90;;;;;;5050954;28;19905;-73
2022/06/03 09:46:34;;;;;;;9.00;2.40;;;34.80;78.50;;;;;;5049842;28;20048;-73
2022/06/03 09:49:38;;;;;;;10.68;2.80;;;36.10;79.40;;;;;;5050462;28;20043;-72
2022/06/03 09:52:42;;;;;;;12.02;2.60;;;35.90;79.60;;;;;;5051001;28;20060;-72
2022/06/03 09:56:00;;;;;;;8.60;2.55;;;36.10;79.60;;;;;;5052243;28;20060;-72
2022/06/03 09:59:05;;;;;;;6.07;2.10;;;36.20;79.10;;;;;;5051850;28;20059;-72
2022/06/03 10:02:09;;;;;;;12.20;2.50;;;36.00;79.00;;;;;;5051282;28;20048;-71
2022/06/03 10:05:16;;;;;;;7.47;2.33;;;34.40;80.70;;;;;;5051805;28;20048;-71
2022/06/03 10:08:24;;;;;;;4.60;2.30;;;35.00;77.80;;;;;;5050599;28;20044;-71
2022/06/03 10:18:15;;;;;;;4.70;1.52;;;35.40;74.80;;;;;;5051152;28;20048;-71
2022/06/03 10:21:19;;;;;;;2.63;1.35;;;34.80;73.20;;;;;;5050934;28;20043;-72
2022/06/03 10:24:32;;;;;;;4.15;1.60;;;34.60;72.40;;;;;;5050955;28;20048;-72
2022/06/03 10:27:36;;;;;;;6.43;1.33;;;35.00;72.60;;;;;;5050856;28;20686;-71
2022/06/03 10:30:41;;;;;;;9.88;1.45;;;35.10;69.60;;;;;;5049422;28;20051;-72
2022/06/03 10:33:57;;;;;;;6.40;1.80;;;34.20;72.90;;;;;;5050437;28;20056;-72
2022/06/03 10:37:05;;;;;;;7.03;1.90;;;33.50;74.10;;;;;;5050239;28;20071;-71
2022/06/03 10:40:12;;;;;;;6.43;2.42;;;32.50;76.80;;;;;;5030704;28;20048;-71
2022/06/03 10:43:30;;;;;;;6.80;2.22;;;31.40;82.90;;;;;;5047392;28;20522;-69
2022/06/03 10:46:34;;;;;;;4.68;2.38;;;30.70;86.00;;;;;;5048248;28;20048;-71
2022/06/03 10:49:51;;;;;;;9.05;2.67;;;30.30;87.00;;;;;;5050275;28;20073;-72
2022/06/03 11:03:30;;;;;;;5.78;2.63;;;30.10;89.40;;;;;;5050449;28;20063;-71
2022/06/03 11:06:36;;;;;;;;;;;30.80;90.10;;;;;;5048956;28;20044;-70
2022/06/03 11:09:53;;;;;;;7.95;3.15;;;31.30;89.10;;;;;;5049234;28;19920;-71
2022/06/03 11:13:05;;;;;;;9.18;3.03;;;31.70;88.90;;;;;;5049804;28;20080;-72
2022/06/03 11:16:23;;;;;;;9.20;3.33;;;31.20;89.70;;;;;;5029759;28;20064;-70
2022/06/03 11:19:47;;;;;;;11.45;3.38;;;30.90;90.10;;;;;;5044895;28;20502;-71
2022/06/03 11:22:51;;;;;;;5.75;2.85;;;30.70;90.60;;;;;;5049172;28;20037;-71
2022/06/03 11:26:00;;;;;;;8.45;2.50;;;31.70;90.20;;;;;;5049863;28;20060;-71
2022/06/03 11:29:32;;;;;;;8.93;2.80;;;33.20;87.10;;;;;;5049532;28;20481;-72
2022/06/03 11:32:37;;;;;;;12.43;2.50;;;34.60;84.60;;;;;;5050113;28;20048;-72
2022/06/03 11:35:59;;;;;;;8.85;2.63;;;34.60;86.80;;;;;;5049285;28;20581;-72
2022/06/03 11:39:13;;;;;;;5.70;2.10;;;34.70;83.10;;;;;;5049609;28;20057;-71
2022/06/03 11:42:31;;;;;;;9.85;3.05;;;34.50;82.70;;;;;;5048867;28;20047;-71
2022/06/03 11:46:10;;;;;;;13.35;2.65;;;34.00;86.00;;;;;;5048714;28;20423;-71
2022/06/03 11:49:18;;;;;;;5.15;2.38;;;33.80;85.70;;;;;;5048852;28;20219;-71
2022/06/03 11:52:24;;;;;;;9.27;2.28;;;34.70;83.00;;;;;;5049715;28;20044;-71
2022/06/03 11:55:32;;;;;;;4.25;2.17;;;35.70;82.20;;;;;;5050148;28;20044;-72
2022/06/03 11:58:54;;;;;;;6.75;2.33;;;36.60;78.30;;;;;;5050238;28;20505;-71
2022/06/03 12:02:10;;;;;;;4.55;2.35;;;37.10;77.20;;;;;;5049397;28;20052;-72
2022/06/03 12:05:16;;;;;;;6.53;2.53;;;37.00;77.00;;;;;;5049556;28;20132;-71
2022/06/03 12:08:44;;;;;;;9.65;2.60;;;36.60;78.50;;;;;;5049858;28;20048;-72
2022/06/03 12:15:32;;;;;;;6.82;2.47;;;33.50;82.70;;;;;;5052874;28;20047;-70
2022/06/03 12:18:37;;;;;;;5.95;2.28;;;32.40;83.30;;;;;;5033207;28;20064;-71
2022/06/03 12:21:44;;;;;;;9.55;2.17;;;31.70;79.00;;;;;;5047788;28;20040;-71
2022/06/03 12:24:52;;;;;;;6.60;2.30;;;32.50;79.50;;;;;;5052536;28;20063;-71
2022/06/03 12:27:57;;;;;;;4.47;2.45;;;33.50;80.50;;;;;;5032667;28;20052;-72
2022/06/03 12:31:20;;;;;;;6.72;2.20;;;33.70;82.50;;;;;;5051022;28;20055;-71
2022/06/03 12:34:27;;;;;;;6.88;2.40;;;34.40;81.80;;;;;;5052053;28;20044;-71
2022/06/03 12:37:31;;;;;;;10.18;2.63;;;33.30;82.00;;;;;;5052159;28;20108;-70
2022/06/03 12:40:36;;;;;;;8.90;2.50;;;33.30;85.00;;;;;;5051277;28;20052;-71
2022/06/03 12:43:46;;;;;;;7.32;2.75;;;33.60;82.90;;;;;;5052149;28;20396;-71
2022/06/03 12:46:50;;;;;;;7.22;2.55;;;35.00;81.80;;;;;;5051234;28;20068;-71
2022/06/03 12:49:57;;;;;;;9.07;2.35;;;34.90;79.80;;;;;;5032197;28;20060;-72
2022/06/03 12:53:17;;;;;;;5.93;2.10;;;35.00;80.10;;;;;;5046924;28;20052;-72
2022/06/03 12:57:01;;;;;;;8.00;2.05;;;35.20;82.40;;;;;;5051215;28;20048;-71
2022/06/03 13:00:14;;;;;;;6.95;2.50;;;35.30;80.50;;;;;;5052186;28;20044;-72
2022/06/03 13:03:24;;;;;;;8.77;2.30;;;34.20;81.10;;;;;;5048187;28;20040;-70
2022/06/03 13:06:27;;;;;;;6.65;1.90;;;35.00;81.20;;;;;;5046544;28;20056;-71
2022/06/03 13:10:03;;;;;;;5.65;2.30;;;34.70;82.00;;;;;;5050810;28;20048;-71
2022/06/03 13:13:28;;;;;;;7.88;2.30;;;34.00;81.90;;;;;;5049524;28;20396;-71
2022/06/03 13:16:35;;;;;;;4.53;2.10;;;34.30;81.00;;;;;;5048602;28;20048;-71
2022/06/03 13:19:44;;;;;;;5.55;2.17;;;34.60;79.90;;;;;;5044735;28;20032;-72
2022/06/03 13:22:55;;;;;;;10.82;2.25;;;35.40;79.20;;;;;;5048858;28;20498;-72
2022/06/03 13:26:21;;;;;;;9.60;2.35;;;36.20;79.60;;;;;;5049365;28;20043;-72
2022/06/03 13:29:44;;;;;;;5.55;2.47;;;36.60;79.00;;;;;;5050555;28;20068;-72
2022/06/03 13:32:59;;;;;;;7.60;2.10;;;36.10;77.60;;;;;;5049661;28;20052;-72
2022/06/03 13:36:09;;;;;;;6.68;2.58;;;35.00;79.10;;;;;;5050183;28;20628;-71
2022/06/03 13:39:29;;;;;;;4.70;2.07;;;33.50;78.50;;;;;;5044511;28;20522;-72
2022/06/03 13:42:58;;;;;;;6.25;2.30;;;33.00;81.90;;;;;;5049946;28;20287;-72
2022/06/03 13:46:10;;;;;;;6.00;2.20;;;33.00;82.20;;;;;;5049711;28;20051;-71
2022/06/03 13:49:24;;;;;;;5.50;1.92;;;33.30;81.00;;;;;;5046111;28;20482;-72
2022/06/03 13:52:32;;;;;;;4.50;2.08;;;33.50;79.80;;;;;;5046073;28;20040;-72
2022/06/03 13:55:41;;;;;;;9.63;1.80;;;33.50;81.80;;;;;;5045644;28;20057;-71
2022/06/03 13:58:45;;;;;;;4.55;2.22;;;33.30;78.90;;;;;;5046755;28;20043;-72
2022/06/03 14:01:52;;;;;;;7.45;1.55;;;32.40;82.90;;;;;;5051176;28;20048;-70
2022/06/03 14:05:01;;;;;;;7.68;1.48;;;32.20;78.10;;;;;;5051262;28;20044;-71
2022/06/03 14:08:19;;;;;;;5.75;1.58;;;31.80;79.10;;;;;;5048509;28;20048;-71
2022/06/03 14:11:29;;;;;;;7.68;1.67;;;31.30;79.40;;;;;;5045017;28;20387;-70
2022/06/03 14:15:02;;;;;;;3.70;2.00;;;30.90;77.40;;;;;;5047079;28;20044;-70
2022/06/03 14:18:07;;;;;;;3.80;1.50;;;30.50;79.40;;;;;;5047975;28;20052;-70
2022/06/03 14:21:37;;;;;;;5.95;1.70;;;30.40;77.90;;;;;;5050820;28;20517;-70
2022/06/03 14:24:49;;;;;;;6.72;1.50;;;30.50;76.90;;;;;;5050032;28;20032;-71
2022/06/03 14:28:01;;;;;;;3.55;1.40;;;30.50;76.40;;;;;;5047274;28;20039;-71
2022/06/03 14:31:29;;;;;;;3.05;1.58;;;30.50;77.50;;;;;;5048628;28;20488;-71
2022/06/03 14:34:44;;;;;;;6.45;1.52;;;30.10;78.80;;;;;;5048386;28;20056;-71
2022/06/03 14:38:11;;;;;;;5.25;2.10;;;29.90;78.90;;;;;;5047014;28;20052;-71
2022/06/03 14:41:26;;;;;;;5.53;1.80;;;30.40;78.30;;;;;;5048137;28;20522;-71
2022/06/03 14:44:32;;;;;;;5.18;1.40;;;30.90;78.10;;;;;;5048273;28;20047;-71
2022/06/03 14:47:40;;;;;;;4.22;1.50;;;31.20;79.70;;;;;;5050088;28;20075;-71
2022/06/03 14:50:53;;;;;;;5.72;1.63;;;31.30;81.00;;;;;;5049611;28;20047;-71
2022/06/03 14:54:03;;;;;;;2.88;1.35;;;31.20;80.20;;;;;;5048386;28;20039;-71
2022/06/03 14:57:09;;;;;;;12.18;1.75;;;31.10;80.50;;;;;;5049230;28;20049;-70
2022/06/03 15:00:25;;;;;;;9.75;1.60;;;31.10;83.20;;;;;;5041327;28;20036;-71
2022/06/03 15:03:38;;;;;;;10.73;1.83;;;31.30;82.90;;;;;;5049733;28;20036;-71
2022/06/03 15:06:51;;;;;;;17.10;2.63;;;31.60;81.30;;;;;;5045445;28;20502;-71
2022/06/03 15:10:00;;;;;;;10.43;1.60;;;31.70;80.40;;;;;;5049479;28;20044;-71
2022/06/03 15:13:04;;;;;;;8.25;1.60;;;31.60;78.80;;;;;;5050515;28;20402;-71
2022/06/03 15:16:08;;;;;;;9.55;2.03;;;31.60;79.40;;;;;;5048837;28;20498;-71
2022/06/03 15:19:12;;;;;;;12.65;1.67;;;31.50;83.40;;;;;;5049752;28;20161;-71
2022/06/03 15:22:31;;;;;;;6.88;1.65;;;31.40;82.70;;;;;;5050146;28;20498;-71
2022/06/03 15:25:42;;;;;;;3.53;1.40;;;31.20;82.20;;;;;;5049140;28;20388;-71
2022/06/03 15:28:55;;;;;;;7.22;1.60;;;30.90;83.40;;;;;;5048967;28;20431;-71
2022/06/03 15:32:01;;;;;;;6.40;2.15;;;30.80;84.50;;;;;;5050087;28;20040;-71
2022/06/03 15:35:09;;;;;;;4.28;2.03;;;30.50;84.80;;;;;;5049076;28;20051;-71
2022/06/03 15:38:20;;;;;;;3.55;1.50;;;30.30;86.00;;;;;;5048555;28;20048;-71
2022/06/03 15:41:27;;;;;;;6.35;1.90;;;30.20;85.20;;;;;;5049212;28;20044;-71
2022/06/03 15:44:43;;;;;;;15.52;2.35;;;30.10;88.10;;;;;;5033807;28;20040;-71
2022/06/03 15:47:47;;;;;;;7.68;1.95;;;29.90;87.40;;;;;;5048241;28;20048;-70
2022/06/03 15:51:11;;;;;;;6.90;2.00;;;29.90;87.70;;;;;;5053093;28;20391;-71
2022/06/03 15:54:30;;;;;;;5.20;2.03;;;30.10;85.10;;;;;;5052805;28;20028;-71
2022/06/03 15:57:56;;;;;;;5.53;1.70;;;30.50;84.60;;;;;;5050110;28;20415;-71
2022/06/03 16:01:16;;;;;;;4.05;2.05;;;30.90;83.80;;;;;;5052485;28;20040;-71
2022/06/03 16:04:36;;;;;;;4.90;1.77;;;31.00;82.10;;;;;;5052863;28;20051;-71
2022/06/03 16:08:21;;;;;;;7.10;2.20;;;31.10;84.60;;;;;;5052975;28;20040;-71
2022/06/03 16:11:31;;;;;;;7.88;1.90;;;31.10;82.00;;;;;;5033288;28;20048;-70
2022/06/03 16:14:56;;;;;;;8.98;2.20;;;30.70;80.60;;;;;;5046469;28;20043;-70
2022/06/03 16:18:12;;;;;;;3.30;1.58;;;30.40;82.30;;;;;;5052072;28;20056;-71
2022/06/03 16:21:32;;;;;;;4.53;1.80;;;30.20;82.40;;;;;;5052409;28;20048;-71
2022/06/03 16:25:03;;;;;;;4.57;1.83;;;30.20;83.10;;;;;;5052739;28;20501;-70
2022/06/03 16:28:35;;;;;;;2.95;1.90;;;30.60;83.40;;;;;;5052130;28;20052;-71
2022/06/03 16:32:06;;;;;;;6.72;1.90;;;31.00;81.80;;;;;;5052276;28;20430;-71
2022/06/03 16:35:21;;;;;;;7.30;2.10;;;31.00;80.90;;;;;;5052188;28;20068;-71
2022/06/03 16:38:40;;;;;;;6.15;1.90;;;30.70;78.20;;;;;;5032600;28;20045;-71
2022/06/03 16:42:20;;;;;;;4.30;1.83;;;30.30;80.20;;;;;;5050112;28;20036;-70
2022/06/03 16:46:06;;;;;;;4.07;1.58;;;30.10;77.70;;;;;;5045186;28;20403;-71
2022/06/03 16:49:13;;;;;;;7.35;1.85;;;30.00;79.90;;;;;;5052572;28;20052;-71
2022/06/03 16:52:36;;;;;;;5.28;1.48;;;30.20;79.00;;;;;;5032451;28;20384;-71
2022/06/03 16:55:50;;;;;;;6.57;1.63;;;30.10;80.90;;;;;;5048663;28;20514;-71
2022/06/03 16:58:57;;;;;;;6.38;1.98;;;29.90;82.80;;;;;;5051263;28;20044;-71
2022/06/03 17:02:03;;;;;;;3.05;1.50;;;30.20;77.80;;;;;;5052079;28;20419;-72
2022/06/03 17:05:13;;;;;;;3.15;1.63;;;30.20;80.00;;;;;;5051961;28;20391;-71
2022/06/03 17:08:38;;;;;;;7.32;1.52;;;30.10;80.40;;;;;;5051206;28;20498;-71
2022/06/03 17:11:43;;;;;;;6.72;1.70;;;29.90;82.00;;;;;;5051330;28;20048;-71
2022/06/03 17:14:49;;;;;;;9.25;1.70;;;29.50;80.20;;;;;;5051910;28;20059;-71
2022/06/03 17:17:56;;;;;;;8.13;1.90;;;29.30;82.80;;;;;;5051025;28;20048;-71
2022/06/03 17:21:42;;;;;;;9.05;1.77;;;28.80;83.00;;;;;;5051007;28;20387;-71
2022/06/03 17:24:53;;;;;;;13.27;3.17;;;28.50;84.20;;;;;;5051789;28;20123;-70
2022/06/03 17:28:05;;;;;;;6.38;2.42;;;28.20;87.80;;;;;;5051844;28;20056;-70
2022/06/03 17:31:12;;;;;;;5.47;2.30;;;28.30;89.40;;;;;;5051245;28;20047;-71
2022/06/03 17:34:29;;;;;;;7.25;2.10;;;28.30;87.90;;;;;;5051148;28;20044;-71
2022/06/03 17:37:40;;;;;;;10.82;2.78;;;28.20;84.00;;;;;;5050090;28;20036;-71
2022/06/03 17:40:50;;;;;;;8.15;3.50;;;28.10;83.80;;;;;;5051285;28;20043;-71